createdAt,value
2022-10-01T00:01:12.641Z,93.38
2022-10-01T00:04:52.348Z,93.34
2022-10-01T00:08:17.193Z,93.19
2022-10-01T00:12:09.059Z,93.40
2022-10-01T00:15:30.082Z,93.69
2022-10-01T00:19:06.938Z,93.83
2022-10-01T00:22:43.776Z,94.18
2022-10-01T00:26:41.258Z,94.28
2022-10-01T00:30:06.106Z,94.21
2022-10-01T00:33:40.626Z,94.20
2022-10-01T00:37:18.300Z,94.28
2022-10-01T00:40:53.982Z,94.36
2022-10-01T00:44:37.042Z,94.42
2022-10-01T00:48:07.448Z,94.60
2022-10-01T00:51:52.659Z,94.52
2022-10-01T00:55:28.925Z,94.55
2022-10-01T00:59:16.835Z,94.51
2022-10-01T01:02:37.781Z,94.54
2022-10-01T01:06:14.537Z,94.68
2022-10-01T01:09:53.570Z,94.98
2022-10-01T01:13:47.854Z,95.24
2022-10-01T01:17:19.706Z,95.30
2022-10-01T01:20:46.083Z,95.43
2022-10-01T01:24:51.233Z,95.33
2022-10-01T01:28:43.882Z,95.09
2022-10-01T01:32:14.769Z,95.05
2022-10-01T01:36:05.419Z,94.93
2022-10-01T01:39:32.450Z,95.31
2022-10-01T01:43:08.251Z,95.14
2022-10-01T01:46:45.372Z,95.13
2022-10-01T01:50:18.928Z,94.95
2022-10-01T01:54:13.216Z,94.84
2022-10-01T01:57:39.320Z,94.55
2022-10-01T02:01:35.056Z,94.53
2022-10-01T02:05:08.701Z,94.37
2022-10-01T02:08:58.902Z,94.32
2022-10-01T02:12:48.029Z,94.39
2022-10-01T02:16:28.580Z,94.46
2022-10-01T02:20:02.451Z,94.49
2022-10-01T02:23:30.779Z,94.43
2022-10-01T02:27:36.968Z,94.45
2022-10-01T02:31:00.061Z,94.52
2022-10-01T02:34:54.392Z,94.41
2022-10-01T02:38:16.877Z,94.33
2022-10-01T02:41:55.563Z,94.21
2022-10-01T02:45:32.326Z,93.91
2022-10-01T02:49:06.030Z,94.03
2022-10-01T02:53:15.914Z,93.89
2022-10-01T02:56:58.623Z,94.17
2022-10-01T03:00:38.356Z,94.45
2022-10-01T03:03:58.605Z,94.43
2022-10-01T03:07:36.341Z,94.24
2022-10-01T03:11:12.441Z,94.05
2022-10-01T03:15:08.280Z,94.11
2022-10-01T03:18:29.195Z,94.16
2022-10-01T03:22:05.840Z,94.16
2022-10-01T03:25:42.438Z,94.18
2022-10-01T03:29:19.230Z,93.88
2022-10-01T03:32:56.228Z,93.36
2022-10-01T03:36:52.226Z,93.27
2022-10-01T03:40:13.123Z,93.60
2022-10-01T03:43:49.910Z,93.93
2022-10-01T03:47:26.696Z,93.79
2022-10-01T03:51:04.690Z,93.69
2022-10-01T03:54:40.266Z,93.60
2022-10-01T03:58:18.976Z,93.57
2022-10-01T04:02:12.805Z,93.64
2022-10-01T04:05:33.576Z,93.49
2022-10-01T04:09:10.350Z,93.27
2022-10-01T04:12:47.154Z,93.35
2022-10-01T04:16:25.102Z,93.70
2022-10-01T04:20:00.889Z,93.68
2022-10-01T04:23:37.501Z,93.53
2022-10-01T04:27:14.333Z,93.94
2022-10-01T04:31:11.140Z,93.84
2022-10-01T04:34:54.025Z,93.61
2022-10-01T04:38:17.031Z,93.63
2022-10-01T04:41:51.408Z,93.48
2022-10-01T04:45:28.590Z,93.55
2022-10-01T04:49:05.282Z,93.70
2022-10-01T04:52:41.978Z,93.87
2022-10-01T04:56:18.724Z,94.07
2022-10-01T04:59:55.447Z,94.18
2022-10-01T05:03:33.097Z,94.17
2022-10-01T05:07:27.834Z,94.11
2022-10-01T05:10:48.915Z,94.19
2022-10-01T05:14:26.268Z,94.21
2022-10-01T05:18:21.262Z,94.30
2022-10-01T05:21:43.325Z,94.46
2022-10-01T05:25:20.201Z,94.53
2022-10-01T05:28:56.524Z,94.66
2022-10-01T05:32:32.738Z,94.52
2022-10-01T05:36:10.154Z,94.16
2022-10-01T05:39:45.980Z,94.39
2022-10-01T05:43:43.181Z,94.57
2022-10-01T05:47:06.693Z,94.86
2022-10-01T05:50:42.495Z,95.03
2022-10-01T05:54:37.405Z,94.89
2022-10-01T05:58:00.211Z,94.67
2022-10-01T06:01:53.868Z,94.61
2022-10-01T06:05:18.024Z,94.63
2022-10-01T06:09:10.444Z,94.37
2022-10-01T06:12:34.441Z,93.94
2022-10-01T06:16:08.289Z,93.73
2022-10-01T06:19:44.894Z,93.42
2022-10-01T06:23:40.719Z,93.61
2022-10-01T06:27:01.485Z,93.99
2022-10-01T06:30:40.169Z,94.25
2022-10-01T06:34:33.744Z,94.45
2022-10-01T06:37:54.732Z,94.53
2022-10-01T06:41:31.471Z,94.57
2022-10-01T06:45:08.509Z,94.37
2022-10-01T06:48:45.015Z,94.48
2022-10-01T06:52:49.750Z,94.61
2022-10-01T06:56:29.448Z,94.78
2022-10-01T06:59:50.484Z,94.65
2022-10-01T07:03:27.759Z,94.64
2022-10-01T07:07:25.114Z,94.76
2022-10-01T07:10:48.174Z,94.64
2022-10-01T07:14:24.700Z,94.43
2022-10-01T07:18:02.225Z,94.54
2022-10-01T07:21:57.285Z,94.61
2022-10-01T07:25:18.327Z,94.66
2022-10-01T07:28:55.394Z,94.55
2022-10-01T07:32:50.594Z,94.35
2022-10-01T07:36:30.352Z,94.24
2022-10-01T07:40:10.258Z,94.31
2022-10-01T07:43:34.304Z,94.37
2022-10-01T07:47:08.015Z,94.43
2022-10-01T07:50:45.453Z,94.18
2022-10-01T07:54:22.726Z,94.23
2022-10-01T07:58:01.581Z,94.08
2022-10-01T08:01:35.586Z,94.14
2022-10-01T08:05:17.906Z,94.06
2022-10-01T08:08:49.282Z,93.99
2022-10-01T08:12:28.336Z,93.66
2022-10-01T08:16:06.278Z,93.67
2022-10-01T08:19:40.286Z,93.79
2022-10-01T08:23:17.447Z,93.75
2022-10-01T08:26:56.115Z,93.64
2022-10-01T08:30:30.251Z,93.52
2022-10-01T08:34:06.830Z,93.43
2022-10-01T08:38:05.243Z,93.37
2022-10-01T08:41:44.797Z,93.46
2022-10-01T08:45:28.416Z,93.50
2022-10-01T08:49:03.638Z,93.41
2022-10-01T08:52:31.108Z,93.11
2022-10-01T08:56:31.652Z,92.98
2022-10-01T08:59:56.858Z,93.06
2022-10-01T09:03:33.865Z,93.13
2022-10-01T09:07:27.317Z,93.35
2022-10-01T09:11:07.453Z,93.63
2022-10-01T09:14:48.145Z,93.20
2022-10-01T09:18:22.997Z,92.97
2022-10-01T09:21:59.800Z,92.99
2022-10-01T09:25:45.474Z,93.18
2022-10-01T09:29:16.315Z,92.92
2022-10-01T09:33:13.888Z,92.64
2022-10-01T09:36:47.679Z,92.51
2022-10-01T09:40:20.603Z,92.66
2022-10-01T09:43:48.268Z,92.55
2022-10-01T09:47:25.934Z,92.34
2022-10-01T09:51:17.745Z,92.39
2022-10-01T09:55:03.406Z,92.48
2022-10-01T09:58:26.878Z,92.60
2022-10-01T10:02:04.203Z,92.49
2022-10-01T10:05:44.023Z,92.18
2022-10-01T10:09:23.396Z,92.05
2022-10-01T10:12:57.245Z,92.41
2022-10-01T10:16:28.906Z,92.08
2022-10-01T10:20:29.209Z,92.04
2022-10-01T10:23:58.096Z,92.00
2022-10-01T10:27:30.247Z,91.85
2022-10-01T10:31:03.305Z,91.49
2022-10-01T10:34:43.259Z,90.73
2022-10-01T10:38:18.804Z,91.00
2022-10-01T10:41:54.116Z,90.98
2022-10-01T10:45:38.866Z,90.98
2022-10-01T10:49:29.404Z,90.43
2022-10-01T10:52:50.337Z,90.34
2022-10-01T10:56:27.000Z,90.35
2022-10-01T11:00:18.944Z,89.77
2022-10-01T11:03:58.368Z,90.00
2022-10-01T11:07:23.143Z,89.37
2022-10-01T11:11:02.297Z,88.93
2022-10-01T11:15:11.154Z,88.63
2022-10-01T11:19:03.082Z,88.03
2022-10-01T11:22:58.291Z,88.36
2022-10-01T11:26:59.213Z,87.91
2022-10-01T11:30:24.643Z,86.62
2022-10-01T11:34:49.737Z,86.12
2022-10-01T11:38:27.319Z,85.67
2022-10-01T11:42:12.685Z,84.95
2022-10-01T11:45:43.818Z,85.75
2022-10-01T11:50:07.807Z,85.88
2022-10-01T11:53:47.163Z,86.03
2022-10-01T11:57:57.885Z,85.41
2022-10-01T12:02:02.449Z,84.10
2022-10-01T12:05:29.700Z,83.60
2022-10-01T12:09:07.966Z,82.70
2022-10-01T12:12:47.449Z,82.54
2022-10-01T12:16:18.319Z,83.25
2022-10-01T12:19:54.096Z,83.86
2022-10-01T12:23:35.572Z,83.96
2022-10-01T12:27:33.569Z,83.57
2022-10-01T12:31:29.625Z,83.19
2022-10-01T12:35:37.470Z,83.37
2022-10-01T12:39:23.993Z,82.78
2022-10-01T12:43:13.625Z,82.32
2022-10-01T12:46:41.716Z,82.43
2022-10-01T12:50:45.621Z,83.18
2022-10-01T12:54:31.447Z,83.34
2022-10-01T12:58:15.450Z,83.67
2022-10-01T13:01:47.882Z,83.72
2022-10-01T13:05:34.692Z,83.36
2022-10-01T13:09:39.880Z,83.87
2022-10-01T13:13:16.969Z,84.22
2022-10-01T13:17:04.256Z,84.30
2022-10-01T13:21:11.136Z,84.22
2022-10-01T13:24:56.541Z,83.98
2022-10-01T13:28:26.940Z,84.35
2022-10-01T13:31:57.448Z,84.73
2022-10-01T13:35:39.585Z,85.08
2022-10-01T13:39:20.019Z,84.74
2022-10-01T13:42:47.167Z,84.85
2022-10-01T13:46:21.967Z,85.20
2022-10-01T13:50:05.975Z,85.27
2022-10-01T13:54:00.805Z,85.47
2022-10-01T13:57:50.449Z,85.50
2022-10-01T14:01:23.028Z,85.29
2022-10-01T14:05:42.622Z,85.56
2022-10-01T14:09:24.402Z,85.80
2022-10-01T14:13:05.749Z,85.97
2022-10-01T14:16:31.310Z,85.96
2022-10-01T14:20:31.933Z,85.77
2022-10-01T14:24:03.194Z,86.02
2022-10-01T14:28:10.010Z,86.26
2022-10-01T14:31:52.953Z,86.23
2022-10-01T14:35:19.461Z,86.03
2022-10-01T14:38:50.126Z,86.20
2022-10-01T14:42:26.923Z,86.46
2022-10-01T14:46:06.771Z,86.69
2022-10-01T14:49:40.580Z,86.76
2022-10-01T14:53:19.250Z,86.52
2022-10-01T14:56:56.986Z,86.50
2022-10-01T15:00:33.030Z,86.68
2022-10-01T15:04:20.050Z,87.07
2022-10-01T15:07:47.190Z,86.99
2022-10-01T15:11:26.106Z,86.52
2022-10-01T15:14:58.037Z,86.42
2022-10-01T15:18:36.977Z,86.68
2022-10-01T15:22:32.537Z,86.89
2022-10-01T15:25:54.642Z,86.98
2022-10-01T15:29:30.381Z,86.74
2022-10-01T15:33:21.095Z,86.66
2022-10-01T15:36:44.644Z,86.74
2022-10-01T15:40:25.367Z,87.18
2022-10-01T15:44:01.248Z,87.28
2022-10-01T15:47:57.234Z,87.03
2022-10-01T15:51:20.307Z,87.07
2022-10-01T15:55:00.101Z,87.21
2022-10-01T15:58:39.258Z,87.49
2022-10-01T16:02:15.402Z,87.61
2022-10-01T16:06:07.793Z,87.51
2022-10-01T16:09:29.834Z,87.41
2022-10-01T16:13:45.003Z,87.60
2022-10-01T16:17:19.010Z,87.90
2022-10-01T16:20:47.905Z,88.10
2022-10-01T16:25:03.662Z,87.79
2022-10-01T16:28:49.762Z,87.72
2022-10-01T16:32:14.926Z,87.93
2022-10-01T16:35:48.805Z,88.15
2022-10-01T16:39:25.233Z,88.20
2022-10-01T16:43:02.786Z,88.46
2022-10-01T16:46:38.152Z,88.37
2022-10-01T16:50:34.112Z,88.45
2022-10-01T16:53:55.123Z,88.54
2022-10-01T16:57:32.669Z,88.77
2022-10-01T17:01:28.535Z,88.88
2022-10-01T17:05:17.562Z,88.96
2022-10-01T17:08:40.903Z,88.89
2022-10-01T17:12:33.815Z,88.84
2022-10-01T17:15:54.910Z,89.00
2022-10-01T17:19:34.053Z,89.24
2022-10-01T17:23:08.354Z,89.28
2022-10-01T17:26:45.661Z,89.50
2022-10-01T17:30:24.396Z,89.33
2022-10-01T17:33:58.072Z,89.00
2022-10-01T17:37:35.030Z,88.93
2022-10-01T17:41:11.712Z,89.25
2022-10-01T17:44:48.677Z,89.20
2022-10-01T17:48:48.312Z,89.40
2022-10-01T17:52:09.215Z,89.16
2022-10-01T17:55:46.893Z,88.98
2022-10-01T17:59:22.738Z,88.89
2022-10-01T18:03:01.269Z,89.17
2022-10-01T18:06:36.631Z,89.24
2022-10-01T18:10:13.684Z,89.02
2022-10-01T18:13:51.260Z,89.04
2022-10-01T18:17:26.893Z,89.22
2022-10-01T18:21:14.044Z,89.25
2022-10-01T18:24:58.977Z,89.25
2022-10-01T18:28:23.478Z,87.81
2022-10-01T18:32:13.681Z,87.11
2022-10-01T18:35:35.304Z,87.52
2022-10-01T18:39:22.242Z,87.75
2022-10-01T18:42:58.245Z,88.14
2022-10-01T18:46:43.729Z,88.46
2022-10-01T18:51:02.382Z,88.72
2022-10-01T18:54:41.586Z,89.07
2022-10-01T18:58:24.465Z,89.17
2022-10-01T19:02:29.280Z,89.20
2022-10-01T19:06:10.771Z,89.03
2022-10-01T19:10:08.432Z,88.99
2022-10-01T19:13:47.465Z,89.23
2022-10-01T19:17:14.658Z,89.46
2022-10-01T19:21:20.075Z,89.67
2022-10-01T19:25:05.847Z,89.72
2022-10-01T19:28:42.920Z,89.63
2022-10-01T19:32:14.344Z,89.51
2022-10-01T19:35:44.405Z,89.41
2022-10-01T19:39:24.244Z,89.58
2022-10-01T19:43:21.922Z,89.69
2022-10-01T19:46:46.042Z,89.85
2022-10-01T19:50:30.535Z,89.84
2022-10-01T19:54:13.517Z,89.54
2022-10-01T19:57:39.196Z,89.53
2022-10-01T20:01:38.452Z,89.63
2022-10-01T20:05:07.094Z,89.82
2022-10-01T20:08:55.914Z,89.92
2022-10-01T20:12:38.802Z,89.80
2022-10-01T20:16:23.575Z,89.70
2022-10-01T20:20:03.182Z,89.50
2022-10-01T20:24:20.265Z,89.54
2022-10-01T20:27:54.996Z,89.78
2022-10-01T20:32:15.105Z,89.91
2022-10-01T20:35:47.693Z,90.04
2022-10-01T20:39:25.606Z,89.54
2022-10-01T20:43:38.435Z,89.59
2022-10-01T20:47:36.647Z,89.93
2022-10-01T20:51:32.034Z,90.16
2022-10-01T20:55:00.515Z,90.28
2022-10-01T20:58:34.379Z,89.85
2022-10-01T21:02:19.158Z,89.80
2022-10-01T21:05:54.415Z,89.86
2022-10-01T21:09:45.730Z,90.02
2022-10-01T21:13:34.269Z,90.22
2022-10-01T21:17:14.665Z,90.00
2022-10-01T21:21:10.257Z,89.93
2022-10-01T21:24:34.168Z,90.18
2022-10-01T21:28:56.176Z,90.46
2022-10-01T21:32:38.527Z,90.62
2022-10-01T21:36:27.313Z,90.53
2022-10-01T21:40:00.243Z,90.70
2022-10-01T21:43:57.007Z,91.03
2022-10-01T21:47:36.312Z,91.25
2022-10-01T21:51:41.981Z,91.41
2022-10-01T21:55:41.573Z,91.58
2022-10-01T21:59:21.785Z,91.48
2022-10-01T22:02:48.114Z,91.38
2022-10-01T22:06:19.878Z,91.86
2022-10-01T22:10:17.008Z,91.93
2022-10-01T22:14:00.869Z,92.01
2022-10-01T22:17:27.082Z,92.17
2022-10-01T22:21:01.066Z,92.31
2022-10-01T22:24:43.724Z,92.18
2022-10-01T22:28:39.344Z,92.09
2022-10-01T22:32:03.973Z,92.31
2022-10-01T22:35:43.324Z,92.38
2022-10-01T22:39:22.055Z,92.67
2022-10-01T22:42:59.580Z,92.79
2022-10-01T22:46:49.806Z,92.71
2022-10-01T22:50:24.104Z,92.69
2022-10-01T22:54:23.725Z,92.85
2022-10-01T22:58:10.622Z,93.13
2022-10-01T23:02:09.900Z,93.12
2022-10-01T23:05:48.634Z,93.29
2022-10-01T23:09:24.147Z,93.27
2022-10-01T23:12:49.708Z,93.34
2022-10-01T23:16:35.941Z,93.06
2022-10-01T23:20:14.320Z,93.01
2022-10-01T23:24:11.314Z,93.20
2022-10-01T23:27:53.371Z,93.35
2022-10-01T23:31:39.849Z,93.14
2022-10-01T23:35:13.215Z,93.20
2022-10-01T23:39:08.636Z,93.29
2022-10-01T23:42:59.304Z,93.49
2022-10-01T23:46:31.750Z,93.67
2022-10-01T23:50:00.835Z,93.68
2022-10-01T23:54:06.875Z,93.52
2022-10-01T23:57:31.917Z,93.34
